sensor_id;sensor_type;location;lat;lon;timestamp;pressure;altitude;pressure_sealevel;temperature;humidity
8075;BME280;4080;42.676;23.372;2023-05-10T00:00:28;95380.97;;;9.69;100.00
8075;BME280;4080;42.676;23.372;2023-05-10T00:02:56;95377.78;;;9.67;100.00
8075;BME280;4080;42.676;23.372;2023-05-10T00:05:23;95381.97;;;9.62;100.00
8075;BME280;4080;42.676;23.372;2023-05-10T00:07:50;95383.53;;;9.58;100.00
8075;BME280;4080;42.676;23.372;2023-05-10T00:10:16;95347.25;;;9.33;100.00
8075;BME280;4080;42.676;23.372;2023-05-10T00:12:43;95373.53;;;9.60;100.00
8075;BME280;4080;42.676;23.372;2023-05-10T00:15:10;95363.91;;;9.44;100.00
8075;BME280;4080;42.676;23.372;2023-05-10T00:17:37;95363.38;;;9.42;100.00
8075;BME280;4080;42.676;23.372;2023-05-10T00:20:06;95365.25;;;9.47;100.00
8075;BME280;4080;42.676;23.372;2023-05-10T00:22:33;95365.25;;;9.47;100.00
8075;BME280;4080;42.676;23.372;2023-05-10T00:24:59;95361.50;;;9.38;100.00
8075;BME280;4080;42.676;23.372;2023-05-10T00:27:26;95361.78;;;9.41;100.00
8075;BME280;4080;42.676;23.372;2023-05-10T00:29:53;95361.53;;;9.43;100.00
8075;BME280;4080;42.676;23.372;2023-05-10T00:32:19;95362.53;;;9.37;100.00
8075;BME280;4080;42.676;23.372;2023-05-10T00:34:46;95360.66;;;9.32;100.00
8075;BME280;4080;42.676;23.372;2023-05-10T00:37:14;95366.47;;;9.34;100.00
8075;BME280;4080;42.676;23.372;2023-05-10T00:39:41;95369.09;;;9.34;100.00
8075;BME280;4080;42.676;23.372;2023-05-10T00:42:07;95354.41;;;9.38;100.00
8075;BME280;4080;42.676;23.372;2023-05-10T00:44:34;95350.44;;;9.36;100.00
8075;BME280;4080;42.676;23.372;2023-05-10T00:47:01;95357.78;;;9.33;100.00
8075;BME280;4080;42.676;23.372;2023-05-10T00:49:28;95360.69;;;9.37;100.00
8075;BME280;4080;42.676;23.372;2023-05-10T00:51:55;95351.50;;;9.40;100.00
8075;BME280;4080;42.676;23.372;2023-05-10T00:54:23;95353.84;;;9.36;100.00
8075;BME280;4080;42.676;23.372;2023-05-10T00:56:50;95349.91;;;9.39;100.00
8075;BME280;4080;42.676;23.372;2023-05-10T00:59:18;95341.22;;;9.38;100.00
8075;BME280;4080;42.676;23.372;2023-05-10T01:01:45;95345.16;;;9.36;100.00
8075;BME280;4080;42.676;23.372;2023-05-10T01:04:12;95346.72;;;9.31;100.00
8075;BME280;4080;42.676;23.372;2023-05-10T01:06:39;95351.94;;;9.26;100.00
8075;BME280;4080;42.676;23.372;2023-05-10T01:09:06;95343.28;;;9.31;100.00
8075;BME280;4080;42.676;23.372;2023-05-10T01:11:34;95347.47;;;9.27;100.00
8075;BME280;4080;42.676;23.372;2023-05-10T01:14:02;95334.59;;;9.30;100.00
8075;BME280;4080;42.676;23.372;2023-05-10T01:16:29;95345.38;;;9.29;100.00
8075;BME280;4080;42.676;23.372;2023-05-10T01:18:58;95344.59;;;9.28;100.00
8075;BME280;4080;42.676;23.372;2023-05-10T01:21:31;95343.78;;;9.28;100.00
8075;BME280;4080;42.676;23.372;2023-05-10T01:30:47;95319.13;;;9.07;100.00
8075;BME280;4080;42.676;23.372;2023-05-10T01:33:21;95335.78;;;9.18;100.00
8075;BME280;4080;42.676;23.372;2023-05-10T01:35:55;95335.47;;;9.09;100.00
8075;BME280;4080;42.676;23.372;2023-05-10T01:38:31;95324.88;;;9.04;100.00
8075;BME280;4080;42.676;23.372;2023-05-10T01:41:07;95325.97;;;9.08;100.00
8075;BME280;4080;42.676;23.372;2023-05-10T01:43:43;95310.41;;;9.01;100.00
8075;BME280;4080;42.676;23.372;2023-05-10T01:46:17;95328.34;;;9.10;100.00
8075;BME280;4080;42.676;23.372;2023-05-10T01:48:51;95318.09;;;9.08;100.00
8075;BME280;4080;42.676;23.372;2023-05-10T01:51:22;95323.06;;;9.05;100.00
8075;BME280;4080;42.676;23.372;2023-05-10T01:53:51;95307.25;;;9.05;100.00
8075;BME280;4080;42.676;23.372;2023-05-10T01:56:24;95336.78;;;9.12;100.00
8075;BME280;4080;42.676;23.372;2023-05-10T01:58:52;95302.47;;;8.96;100.00
8075;BME280;4080;42.676;23.372;2023-05-10T02:01:21;95315.13;;;8.99;100.00
8075;BME280;4080;42.676;23.372;2023-05-10T02:03:50;95325.13;;;9.02;100.00
8075;BME280;4080;42.676;23.372;2023-05-10T02:06:19;95286.78;;;8.80;100.00
8075;BME280;4080;42.676;23.372;2023-05-10T02:08:49;95329.34;;;9.03;100.00
8075;BME280;4080;42.676;23.372;2023-05-10T02:11:17;95325.44;;;9.06;100.00
8075;BME280;4080;42.676;23.372;2023-05-10T02:13:45;95326.22;;;9.07;100.00
8075;BME280;4080;42.676;23.372;2023-05-10T02:16:14;95328.31;;;9.05;100.00
8075;BME280;4080;42.676;23.372;2023-05-10T02:18:42;95331.69;;;9.00;100.00
8075;BME280;4080;42.676;23.372;2023-05-10T02:21:11;95314.53;;;8.92;100.00
8075;BME280;4080;42.676;23.372;2023-05-10T02:23:40;95327.69;;;8.92;100.00
8075;BME280;4080;42.676;23.372;2023-05-10T02:26:08;95327.94;;;8.91;100.00
8075;BME280;4080;42.676;23.372;2023-05-10T02:28:35;95326.03;;;8.86;100.00
8075;BME280;4080;42.676;23.372;2023-05-10T02:31:03;95340.84;;;8.92;100.00
8075;BME280;4080;42.676;23.372;2023-05-10T02:33:31;95334.16;;;8.85;100.00
8075;BME280;4080;42.676;23.372;2023-05-10T02:36:01;95342.56;;;8.82;100.00
8075;BME280;4080;42.676;23.372;2023-05-10T02:38:31;95340.63;;;8.72;100.00
8075;BME280;4080;42.676;23.372;2023-05-10T02:40:59;95344.81;;;8.68;100.00
8075;BME280;4080;42.676;23.372;2023-05-10T02:43:28;95344.19;;;8.61;100.00
8075;BME280;4080;42.676;23.372;2023-05-10T02:45:57;95343.03;;;8.52;100.00
8075;BME280;4080;42.676;23.372;2023-05-10T02:48:23;95331.38;;;8.43;100.00
8075;BME280;4080;42.676;23.372;2023-05-10T02:50:52;95332.16;;;8.43;100.00
8075;BME280;4080;42.676;23.372;2023-05-10T02:53:23;95334.66;;;8.33;100.00
8075;BME280;4080;42.676;23.372;2023-05-10T02:56:00;95336.81;;;8.36;100.00
8075;BME280;4080;42.676;23.372;2023-05-10T02:58:29;95313.72;;;8.21;100.00
8075;BME280;4080;42.676;23.372;2023-05-10T03:00:55;95332.75;;;8.28;100.00
8075;BME280;4080;42.676;23.372;2023-05-10T03:03:22;95327.75;;;8.27;100.00
8075;BME280;4080;42.676;23.372;2023-05-10T03:05:49;95323.63;;;8.14;100.00
8075;BME280;4080;42.676;23.372;2023-05-10T03:08:16;95328.09;;;8.14;100.00
8075;BME280;4080;42.676;23.372;2023-05-10T03:10:51;95335.44;;;8.12;100.00
8075;BME280;4080;42.676;23.372;2023-05-10T03:13:29;95334.09;;;8.09;100.00
8075;BME280;4080;42.676;23.372;2023-05-10T03:16:09;95303.09;;;7.89;100.00
8075;BME280;4080;42.676;23.372;2023-05-10T03:18:42;95344.97;;;8.18;100.00
8075;BME280;4080;42.676;23.372;2023-05-10T03:21:11;95343.81;;;8.08;100.00
8075;BME280;4080;42.676;23.372;2023-05-10T03:23:43;95352.00;;;8.12;100.00
8075;BME280;4080;42.676;23.372;2023-05-10T03:26:15;95343.31;;;8.12;100.00
8075;BME280;4080;42.676;23.372;2023-05-10T03:28:45;95339.09;;;8.10;100.00
8075;BME280;4080;42.676;23.372;2023-05-10T03:31:14;95343.81;;;8.08;100.00
8075;BME280;4080;42.676;23.372;2023-05-10T03:33:46;95341.78;;;8.16;100.00
8075;BME280;4080;42.676;23.372;2023-05-10T03:36:13;95355.72;;;8.16;100.00
8075;BME280;4080;42.676;23.372;2023-05-10T03:38:40;95346.56;;;8.19;100.00
8075;BME280;4080;42.676;23.372;2023-05-10T03:41:07;95349.66;;;8.16;100.00
8075;BME280;4080;42.676;23.372;2023-05-10T03:43:33;95359.94;;;8.17;100.00
8075;BME280;4080;42.676;23.372;2023-05-10T03:46:02;95348.88;;;8.15;100.00
8075;BME280;4080;42.676;23.372;2023-05-10T03:48:29;95358.28;;;8.11;100.00
8075;BME280;4080;42.676;23.372;2023-05-10T03:50:56;95359.25;;;8.05;100.00
8075;BME280;4080;42.676;23.372;2023-05-10T03:53:23;95362.38;;;8.02;100.00
8075;BME280;4080;42.676;23.372;2023-05-10T03:55:49;95363.16;;;8.02;100.00
8075;BME280;4080;42.676;23.372;2023-05-10T03:58:16;95359.00;;;8.06;100.00
8075;BME280;4080;42.676;23.372;2023-05-10T04:00:43;95343.28;;;7.90;100.00
8075;BME280;4080;42.676;23.372;2023-05-10T04:03:12;95362.31;;;7.97;100.00
8075;BME280;4080;42.676;23.372;2023-05-10T04:05:39;95366.53;;;7.98;100.00
8075;BME280;4080;42.676;23.372;2023-05-10T04:08:06;95358.56;;;7.93;100.00
8075;BME280;4080;42.676;23.372;2023-05-10T04:10:33;95368.81;;;7.94;100.00
8075;BME280;4080;42.676;23.372;2023-05-10T04:12:59;95372.72;;;7.92;100.00
8075;BME280;4080;42.676;23.372;2023-05-10T04:15:26;95363.56;;;7.94;100.00
8075;BME280;4080;42.676;23.372;2023-05-10T04:17:53;95369.16;;;7.98;100.00
8075;BME280;4080;42.676;23.372;2023-05-10T04:20:21;95333.84;;;7.72;100.00
8075;BME280;4080;42.676;23.372;2023-05-10T04:22:48;95370.75;;;7.99;100.00
8075;BME280;4080;42.676;23.372;2023-05-10T04:25:14;95367.94;;;8.05;100.00
8075;BME280;4080;42.676;23.372;2023-05-10T04:27:42;95376.06;;;8.04;100.00
8075;BME280;4080;42.676;23.372;2023-05-10T04:30:09;95378.13;;;8.02;100.00
8075;BME280;4080;42.676;23.372;2023-05-10T04:32:36;95373.38;;;7.99;100.00
8075;BME280;4080;42.676;23.372;2023-05-10T04:35:03;95368.97;;;8.04;100.00
8075;BME280;4080;42.676;23.372;2023-05-10T04:37:31;95371.91;;;8.08;100.00
8075;BME280;4080;42.676;23.372;2023-05-10T04:39:58;95379.78;;;8.08;100.00
8075;BME280;4080;42.676;23.372;2023-05-10T04:42:26;95352.19;;;7.89;100.00
8075;BME280;4080;42.676;23.372;2023-05-10T04:44:52;95380.22;;;8.00;100.00
8075;BME280;4080;42.676;23.372;2023-05-10T04:47:19;95379.41;;;7.99;100.00
8075;BME280;4080;42.676;23.372;2023-05-10T04:49:46;95370.41;;;7.95;100.00
8075;BME280;4080;42.676;23.372;2023-05-10T04:52:13;95365.72;;;7.97;100.00
8075;BME280;4080;42.676;23.372;2023-05-10T04:54:42;95378.94;;;8.02;100.00
8075;BME280;4080;42.676;23.372;2023-05-10T04:57:09;95371.06;;;8.02;100.00
8075;BME280;4080;42.676;23.372;2023-05-10T04:59:36;95364.56;;;8.10;100.00
8075;BME280;4080;42.676;23.372;2023-05-10T05:02:03;95375.47;;;8.19;100.00
8075;BME280;4080;42.676;23.372;2023-05-10T05:04:30;95352.47;;;8.09;100.00
8075;BME280;4080;42.676;23.372;2023-05-10T05:06:57;95365.19;;;8.17;100.00
8075;BME280;4080;42.676;23.372;2023-05-10T05:09:24;95380.78;;;8.24;100.00
8075;BME280;4080;42.676;23.372;2023-05-10T05:11:53;95374.16;;;8.21;100.00
8075;BME280;4080;42.676;23.372;2023-05-10T05:14:20;95354.06;;;8.10;100.00
8075;BME280;4080;42.676;23.372;2023-05-10T05:16:47;95346.31;;;7.98;100.00
8075;BME280;4080;42.676;23.372;2023-05-10T05:19:14;95389.38;;;8.19;100.00
8075;BME280;4080;42.676;23.372;2023-05-10T05:21:41;95380.72;;;8.19;100.00
8075;BME280;4080;42.676;23.372;2023-05-10T05:24:08;95375.22;;;8.20;100.00
8075;BME280;4080;42.676;23.372;2023-05-10T05:26:35;95384.19;;;8.24;100.00
8075;BME280;4080;42.676;23.372;2023-05-10T05:29:03;95408.41;;;8.26;100.00
8075;BME280;4080;42.676;23.372;2023-05-10T05:31:30;95392.16;;;8.29;100.00
8075;BME280;4080;42.676;23.372;2023-05-10T05:33:57;95391.22;;;8.35;100.00
8075;BME280;4080;42.676;23.372;2023-05-10T05:36:23;95392.47;;;8.33;100.00
8075;BME280;4080;42.676;23.372;2023-05-10T05:38:50;95398.22;;;8.30;100.00
8075;BME280;4080;42.676;23.372;2023-05-10T05:41:17;95397.44;;;8.29;100.00
8075;BME280;4080;42.676;23.372;2023-05-10T05:43:43;95391.69;;;8.32;100.00
8075;BME280;4080;42.676;23.372;2023-05-10T05:46:11;95391.13;;;8.30;100.00
8075;BME280;4080;42.676;23.372;2023-05-10T05:48:38;95388.66;;;8.40;100.00
8075;BME280;4080;42.676;23.372;2023-05-10T05:51:05;95386.81;;;8.41;100.00
8075;BME280;4080;42.676;23.372;2023-05-10T05:53:31;95405.03;;;8.48;100.00
8075;BME280;4080;42.676;23.372;2023-05-10T05:55:58;95398.25;;;8.52;100.00
8075;BME280;4080;42.676;23.372;2023-05-10T05:58:25;95397.44;;;8.51;100.00
8075;BME280;4080;42.676;23.372;2023-05-10T06:00:52;95410.34;;;8.53;100.00
8075;BME280;4080;42.676;23.372;2023-05-10T06:03:20;95395.84;;;8.50;100.00
8075;BME280;4080;42.676;23.372;2023-05-10T06:05:47;95399.81;;;8.53;100.00
8075;BME280;4080;42.676;23.372;2023-05-10T06:08:14;95412.56;;;8.61;100.00
8075;BME280;4080;42.676;23.372;2023-05-10T06:10:40;95407.81;;;8.58;100.00
8075;BME280;4080;42.676;23.372;2023-05-10T06:13:07;95413.84;;;8.58;100.00
8075;BME280;4080;42.676;23.372;2023-05-10T06:15:34;95409.06;;;8.55;100.00
8075;BME280;4080;42.676;23.372;2023-05-10T06:18:01;95410.28;;;8.48;100.00
8075;BME280;4080;42.676;23.372;2023-05-10T06:20:29;95365.91;;;8.13;100.00
8075;BME280;4080;42.676;23.372;2023-05-10T06:22:56;95400.16;;;8.34;100.00
8075;BME280;4080;42.676;23.372;2023-05-10T06:25:23;95416.09;;;8.50;100.00
8075;BME280;4080;42.676;23.372;2023-05-10T06:27:50;95418.22;;;8.53;100.00
8075;BME280;4080;42.676;23.372;2023-05-10T06:30:20;95422.44;;;8.54;100.00
8075;BME280;4080;42.676;23.372;2023-05-10T06:32:48;95384.28;;;8.29;100.00
8075;BME280;4080;42.676;23.372;2023-05-10T06:35:15;95421.00;;;8.63;100.00
8075;BME280;4080;42.676;23.372;2023-05-10T06:37:43;95423.38;;;8.64;100.00
8075;BME280;4080;42.676;23.372;2023-05-10T06:40:10;95387.41;;;8.48;100.00
8075;BME280;4080;42.676;23.372;2023-05-10T06:42:37;95425.28;;;8.69;100.00
8075;BME280;4080;42.676;23.372;2023-05-10T06:45:04;95427.66;;;8.70;100.00
8075;BME280;4080;42.676;23.372;2023-05-10T06:47:31;95410.09;;;8.76;100.00
8075;BME280;4080;42.676;23.372;2023-05-10T06:49:58;95415.38;;;8.76;100.00
8075;BME280;4080;42.676;23.372;2023-05-10T06:52:24;95420.13;;;8.79;100.00
8075;BME280;4080;42.676;23.372;2023-05-10T06:54:53;95399.53;;;8.71;100.00
8075;BME280;4080;42.676;23.372;2023-05-10T06:57:19;95420.38;;;8.78;100.00
8075;BME280;4080;42.676;23.372;2023-05-10T06:59:46;95425.16;;;8.81;100.00
8075;BME280;4080;42.676;23.372;2023-05-10T07:02:13;95417.63;;;8.89;100.00
8075;BME280;4080;42.676;23.372;2023-05-10T07:04:41;95421.84;;;8.90;100.00
8075;BME280;4080;42.676;23.372;2023-05-10T07:07:08;95427.41;;;8.94;100.00
8075;BME280;4080;42.676;23.372;2023-05-10T07:09:35;95430.34;;;8.97;100.00
8075;BME280;4080;42.676;23.372;2023-05-10T07:12:03;95427.47;;;8.99;100.00
8075;BME280;4080;42.676;23.372;2023-05-10T07:14:30;95424.41;;;8.85;100.00
8075;BME280;4080;42.676;23.372;2023-05-10T07:16:57;95422.78;;;9.06;100.00
8075;BME280;4080;42.676;23.372;2023-05-10T07:19:23;95420.22;;;9.11;100.00
8075;BME280;4080;42.676;23.372;2023-05-10T07:21:50;95433.66;;;9.15;100.00
8075;BME280;4080;42.676;23.372;2023-05-10T07:24:17;95433.16;;;9.18;100.00
8075;BME280;4080;42.676;23.372;2023-05-10T07:26:44;95410.13;;;9.03;100.00
8075;BME280;4080;42.676;23.372;2023-05-10T07:29:12;95436.97;;;9.27;100.00
8075;BME280;4080;42.676;23.372;2023-05-10T07:31:38;95436.16;;;9.26;100.00
8075;BME280;4080;42.676;23.372;2023-05-10T07:34:07;95438.56;;;9.28;100.00
8075;BME280;4080;42.676;23.372;2023-05-10T07:36:34;95445.19;;;9.36;100.00
8075;BME280;4080;42.676;23.372;2023-05-10T07:39:01;95442.31;;;9.37;100.00
8075;BME280;4080;42.676;23.372;2023-05-10T07:41:28;95437.34;;;9.41;100.00
8075;BME280;4080;42.676;23.372;2023-05-10T07:43:55;95439.69;;;9.37;100.00
8075;BME280;4080;42.676;23.372;2023-05-10T07:46:23;95452.06;;;9.37;100.00
8075;BME280;4080;42.676;23.372;2023-05-10T07:48:49;95462.09;;;9.40;100.00
8075;BME280;4080;42.676;23.372;2023-05-10T07:51:16;95447.59;;;9.37;100.00
8075;BME280;4080;42.676;23.372;2023-05-10T07:53:43;95434.38;;;9.32;100.00
8075;BME280;4080;42.676;23.372;2023-05-10T07:56:23;95441.22;;;9.33;100.00
8075;BME280;4080;42.676;23.372;2023-05-10T07:58:52;95456.06;;;9.44;100.00
8075;BME280;4080;42.676;23.372;2023-05-10T08:01:19;95450.56;;;9.46;100.00
8075;BME280;4080;42.676;23.372;2023-05-10T08:03:47;95441.44;;;9.53;100.00
8075;BME280;4080;42.676;23.372;2023-05-10T08:06:14;95464.59;;;9.51;100.00
8075;BME280;4080;42.676;23.372;2023-05-10T08:08:41;95455.56;;;9.47;100.00
8075;BME280;4080;42.676;23.372;2023-05-10T08:11:07;95446.69;;;9.53;100.00
8075;BME280;4080;42.676;23.372;2023-05-10T08:13:35;95436.66;;;9.50;100.00
8075;BME280;4080;42.676;23.372;2023-05-10T08:16:01;95457.31;;;9.63;100.00
8075;BME280;4080;42.676;23.372;2023-05-10T08:18:28;95446.28;;;9.67;100.00
8075;BME280;4080;42.676;23.372;2023-05-10T08:20:56;95453.94;;;9.68;100.00
8075;BME280;4080;42.676;23.372;2023-05-10T08:23:23;95448.88;;;9.61;100.00
8075;BME280;4080;42.676;23.372;2023-05-10T08:25:49;95460.78;;;9.69;100.00
8075;BME280;4080;42.676;23.372;2023-05-10T08:28:16;95455.28;;;9.76;100.00
8075;BME280;4080;42.676;23.372;2023-05-10T08:30:43;95448.72;;;9.78;100.00
8075;BME280;4080;42.676;23.372;2023-05-10T08:33:09;95457.22;;;9.80;100.00
8075;BME280;4080;42.676;23.372;2023-05-10T08:35:36;95455.91;;;9.83;100.00
8075;BME280;4080;42.676;23.372;2023-05-10T08:38:04;95450.13;;;9.86;100.00
8075;BME280;4080;42.676;23.372;2023-05-10T08:40:31;95459.66;;;9.92;100.00
8075;BME280;4080;42.676;23.372;2023-05-10T08:43:03;95448.84;;;9.88;100.00
8075;BME280;4080;42.676;23.372;2023-05-10T08:45:32;95422.09;;;9.75;100.00
8075;BME280;4080;42.676;23.372;2023-05-10T08:48:01;95456.50;;;9.95;100.00
8075;BME280;4080;42.676;23.372;2023-05-10T08:50:29;95449.63;;;9.89;100.00
8075;BME280;4080;42.676;23.372;2023-05-10T08:52:59;95466.53;;;9.93;100.00
8075;BME280;4080;42.676;23.372;2023-05-10T08:55:28;95463.16;;;10.03;100.00
8075;BME280;4080;42.676;23.372;2023-05-10T08:57:55;95467.63;;;10.02;100.00
8075;BME280;4080;42.676;23.372;2023-05-10T09:00:22;95470.03;;;10.09;100.00
8075;BME280;4080;42.676;23.372;2023-05-10T09:02:50;95471.44;;;10.16;100.00
8075;BME280;4080;42.676;23.372;2023-05-10T09:05:16;95461.19;;;10.20;100.00
8075;BME280;4080;42.676;23.372;2023-05-10T09:07:43;95456.22;;;10.23;100.00
8075;BME280;4080;42.676;23.372;2023-05-10T09:10:11;95419.13;;;9.98;100.00
8075;BME280;4080;42.676;23.372;2023-05-10T09:12:41;95455.97;;;10.25;100.00
8075;BME280;4080;42.676;23.372;2023-05-10T09:15:09;95455.13;;;10.19;100.00
8075;BME280;4080;42.676;23.372;2023-05-10T09:17:38;95457.81;;;10.24;100.00
8075;BME280;4080;42.676;23.372;2023-05-10T09:20:07;95453.09;;;10.32;100.00
8075;BME280;4080;42.676;23.372;2023-05-10T09:22:34;95460.72;;;10.28;100.00
8075;BME280;4080;42.676;23.372;2023-05-10T09:25:06;95454.69;;;10.33;100.00
8075;BME280;4080;42.676;23.372;2023-05-10T09:27:33;95453.63;;;10.29;100.00
8075;BME280;4080;42.676;23.372;2023-05-10T09:30:01;95448.25;;;10.18;100.00
8075;BME280;4080;42.676;23.372;2023-05-10T09:32:38;95448.25;;;10.18;100.00
8075;BME280;4080;42.676;23.372;2023-05-10T09:35:08;95421.00;;;10.08;100.00
8075;BME280;4080;42.676;23.372;2023-05-10T09:37:35;95445.72;;;10.34;100.00
8075;BME280;4080;42.676;23.372;2023-05-10T09:40:05;95449.97;;;10.40;100.00
8075;BME280;4080;42.676;23.372;2023-05-10T09:42:33;95444.69;;;10.40;100.00
8075;BME280;4080;42.676;23.372;2023-05-10T09:45:02;95448.97;;;10.46;100.00
8075;BME280;4080;42.676;23.372;2023-05-10T09:47:32;95447.41;;;10.45;100.00
8075;BME280;4080;42.676;23.372;2023-05-10T09:49:59;95413.00;;;10.24;100.00
8075;BME280;4080;42.676;23.372;2023-05-10T09:52:29;95433.38;;;10.39;100.00
8075;BME280;4080;42.676;23.372;2023-05-10T09:54:56;95436.59;;;10.46;100.00
8075;BME280;4080;42.676;23.372;2023-05-10T09:57:24;95444.78;;;10.50;100.00
8075;BME280;4080;42.676;23.372;2023-05-10T09:59:51;95433.72;;;10.58;100.00
8075;BME280;4080;42.676;23.372;2023-05-10T10:02:21;95437.97;;;10.64;100.00
8075;BME280;4080;42.676;23.372;2023-05-10T10:04:54;95436.13;;;10.65;100.00
8075;BME280;4080;42.676;23.372;2023-05-10T10:07:23;95429.28;;;10.64;100.00
8075;BME280;4080;42.676;23.372;2023-05-10T10:09:51;95439.31;;;10.67;100.00
8075;BME280;4080;42.676;23.372;2023-05-10T10:12:18;95430.13;;;10.74;100.00
8075;BME280;4080;42.676;23.372;2023-05-10T10:14:46;95420.88;;;10.72;100.00
8075;BME280;4080;42.676;23.372;2023-05-10T10:17:14;95427.25;;;10.81;100.00
8075;BME280;4080;42.676;23.372;2023-05-10T10:19:43;95422.78;;;10.86;100.00
8075;BME280;4080;42.676;23.372;2023-05-10T10:22:10;95416.97;;;10.84;100.00
8075;BME280;4080;42.676;23.372;2023-05-10T10:24:38;95414.63;;;10.98;100.00
8075;BME280;4080;42.676;23.372;2023-05-10T10:27:15;95416.25;;;11.09;100.00
8075;BME280;4080;42.676;23.372;2023-05-10T10:29:52;95413.88;;;11.18;100.00
8075;BME280;4080;42.676;23.372;2023-05-10T10:32:30;95423.13;;;11.31;100.00
8075;BME280;4080;42.676;23.372;2023-05-10T10:35:04;95414.94;;;11.22;100.00
8075;BME280;4080;42.676;23.372;2023-05-10T10:37:44;95412.84;;;11.24;100.00
8075;BME280;4080;42.676;23.372;2023-05-10T10:40:27;95422.34;;;11.25;100.00
8075;BME280;4080;42.676;23.372;2023-05-10T10:42:55;95418.66;;;11.31;100.00
8075;BME280;4080;42.676;23.372;2023-05-10T10:45:23;95422.34;;;11.25;100.00
8075;BME280;4080;42.676;23.372;2023-05-10T10:48:00;95419.44;;;11.32;100.00
8075;BME280;4080;42.676;23.372;2023-05-10T10:50:47;95418.69;;;11.36;100.00
8075;BME280;4080;42.676;23.372;2023-05-10T10:53:13;95416.56;;;11.38;100.00
8075;BME280;4080;42.676;23.372;2023-05-10T10:55:46;95415.47;;;11.19;100.00
8075;BME280;4080;42.676;23.372;2023-05-10T10:58:29;95407.81;;;11.07;100.00
8075;BME280;4080;42.676;23.372;2023-05-10T11:01:10;95425.97;;;10.99;100.00
8075;BME280;4080;42.676;23.372;2023-05-10T11:03:37;95380.00;;;10.74;100.00
8075;BME280;4080;42.676;23.372;2023-05-10T11:06:05;95425.50;;;11.17;100.00
8075;BME280;4080;42.676;23.372;2023-05-10T11:08:34;95408.88;;;11.16;100.00
8075;BME280;4080;42.676;23.372;2023-05-10T11:11:07;95412.03;;;11.18;100.00
8075;BME280;4080;42.676;23.372;2023-05-10T11:13:37;95408.88;;;11.22;100.00
8075;BME280;4080;42.676;23.372;2023-05-10T11:16:12;95413.34;;;11.16;100.00
8075;BME280;4080;42.676;23.372;2023-05-10T11:18:39;95402.25;;;11.14;100.00
8075;BME280;4080;42.676;23.372;2023-05-10T11:21:09;95393.81;;;11.27;100.00
8075;BME280;4080;42.676;23.372;2023-05-10T11:23:52;95405.22;;;11.43;100.00
8075;BME280;4080;42.676;23.372;2023-05-10T11:26:21;95422.38;;;11.56;100.00
8075;BME280;4080;42.676;23.372;2023-05-10T11:28:51;95419.78;;;11.66;100.00
8075;BME280;4080;42.676;23.372;2023-05-10T11:31:19;95416.88;;;11.67;100.00
8075;BME280;4080;42.676;23.372;2023-05-10T11:33:48;95409.19;;;11.56;100.00
8075;BME280;4080;42.676;23.372;2023-05-10T11:36:17;95379.56;;;11.13;100.00
8075;BME280;4080;42.676;23.372;2023-05-10T11:38:45;95411.28;;;11.54;100.00
8075;BME280;4080;42.676;23.372;2023-05-10T11:41:12;95420.31;;;11.68;100.00
8075;BME280;4080;42.676;23.372;2023-05-10T11:43:39;95411.31;;;11.64;100.00
8075;BME280;4080;42.676;23.372;2023-05-10T11:46:07;95419.75;;;11.76;100.00
8075;BME280;4080;42.676;23.372;2023-05-10T11:48:34;95416.59;;;11.74;100.00
8075;BME280;4080;42.676;23.372;2023-05-10T11:51:01;95408.16;;;11.67;100.00
8075;BME280;4080;42.676;23.372;2023-05-10T11:53:30;95414.50;;;11.71;100.00
8075;BME280;4080;42.676;23.372;2023-05-10T11:56:02;95413.69;;;11.75;100.00
8075;BME280;4080;42.676;23.372;2023-05-10T11:58:30;95418.44;;;11.73;100.00
8075;BME280;4080;42.676;23.372;2023-05-10T12:00:57;95404.97;;;11.75;100.00
8075;BME280;4080;42.676;23.372;2023-05-10T12:03:24;95416.06;;;11.77;100.00
8075;BME280;4080;42.676;23.372;2023-05-10T12:05:51;95401.25;;;11.45;100.00
8075;BME280;4080;42.676;23.372;2023-05-10T12:08:21;95395.44;;;11.38;100.00
8075;BME280;4080;42.676;23.372;2023-05-10T12:10:50;95387.75;;;11.32;100.00
8075;BME280;4080;42.676;23.372;2023-05-10T12:13:17;95409.13;;;11.25;100.00
8075;BME280;4080;42.676;23.372;2023-05-10T12:15:45;95402.28;;;11.24;100.00
8075;BME280;4080;42.676;23.372;2023-05-10T12:18:13;95398.56;;;11.05;100.00
8075;BME280;4080;42.676;23.372;2023-05-10T12:20:41;95391.72;;;11.19;100.00
8075;BME280;4080;42.676;23.372;2023-05-10T12:23:09;95390.66;;;11.25;100.00
8075;BME280;4080;42.676;23.372;2023-05-10T12:25:37;95381.94;;;11.30;100.00
8075;BME280;4080;42.676;23.372;2023-05-10T12:28:07;95387.22;;;11.25;100.00
8075;BME280;4080;42.676;23.372;2023-05-10T12:30:35;95383.50;;;11.10;100.00
8075;BME280;4080;42.676;23.372;2023-05-10T12:33:08;95391.72;;;11.24;100.00
8075;BME280;4080;42.676;23.372;2023-05-10T12:35:44;95357.38;;;11.14;100.00
8075;BME280;4080;42.676;23.372;2023-05-10T12:38:26;95379.59;;;11.48;100.00
8075;BME280;4080;42.676;23.372;2023-05-10T12:40:55;95380.66;;;11.42;100.00
8075;BME280;4080;42.676;23.372;2023-05-10T12:43:23;95378.53;;;11.39;100.00
8075;BME280;4080;42.676;23.372;2023-05-10T12:45:49;95375.34;;;11.27;100.00
8075;BME280;4080;42.676;23.372;2023-05-10T12:48:16;95366.09;;;11.04;100.00
8075;BME280;4080;42.676;23.372;2023-05-10T12:50:43;95381.66;;;11.16;100.00
8075;BME280;4080;42.676;23.372;2023-05-10T12:53:10;95375.34;;;11.17;100.00
8075;BME280;4080;42.676;23.372;2023-05-10T12:55:36;95371.09;;;11.16;100.00
8075;BME280;4080;42.676;23.372;2023-05-10T12:58:03;95365.56;;;11.28;100.00
8075;BME280;4080;42.676;23.372;2023-05-10T13:00:31;95360.56;;;11.26;100.00
8075;BME280;4080;42.676;23.372;2023-05-10T13:02:58;95360.81;;;11.30;100.00
8075;BME280;4080;42.676;23.372;2023-05-10T13:05:24;95357.13;;;11.31;100.00
8075;BME280;4080;42.676;23.372;2023-05-10T13:07:51;95357.94;;;11.41;100.00
8075;BME280;4080;42.676;23.372;2023-05-10T13:10:18;95362.16;;;11.42;100.00
8075;BME280;4080;42.676;23.372;2023-05-10T13:12:44;95364.00;;;11.47;100.00
8075;BME280;4080;42.676;23.372;2023-05-10T13:15:11;95355.28;;;11.51;100.00
8075;BME280;4080;42.676;23.372;2023-05-10T13:17:39;95347.88;;;11.54;100.00
8075;BME280;4080;42.676;23.372;2023-05-10T13:20:08;95350.53;;;11.48;100.00